sensor_id;sensor_type;location;lat;lon;timestamp;P1;durP1;ratioP1;P2;durP2;ratioP2
1799;SDS011;919;48.274;12.292;2023-11-19T00:02:19;2.57;;;1.50;;
1799;SDS011;919;48.274;12.292;2023-11-19T00:04:46;2.07;;;1.97;;
1799;SDS011;919;48.274;12.292;2023-11-19T00:07:13;1.87;;;1.50;;
1799;SDS011;919;48.274;12.292;2023-11-19T00:09:41;2.07;;;1.73;;
1799;SDS011;919;48.274;12.292;2023-11-19T00:12:08;1.17;;;1.17;;
1799;SDS011;919;48.274;12.292;2023-11-19T00:14:35;2.00;;;1.60;;
1799;SDS011;919;48.274;12.292;2023-11-19T00:17:02;1.40;;;1.30;;
1799;SDS011;919;48.274;12.292;2023-11-19T00:19:31;1.80;;;1.70;;
1799;SDS011;919;48.274;12.292;2023-11-19T00:21:57;1.37;;;1.37;;
1799;SDS011;919;48.274;12.292;2023-11-19T00:24:27;1.83;;;1.70;;
1799;SDS011;919;48.274;12.292;2023-11-19T00:26:54;1.80;;;1.70;;
1799;SDS011;919;48.274;12.292;2023-11-19T00:29:21;3.17;;;1.40;;
1799;SDS011;919;48.274;12.292;2023-11-19T00:31:48;1.50;;;1.40;;
1799;SDS011;919;48.274;12.292;2023-11-19T00:34:14;1.30;;;1.20;;
1799;SDS011;919;48.274;12.292;2023-11-19T00:36:43;1.70;;;1.60;;
1799;SDS011;919;48.274;12.292;2023-11-19T00:39:10;1.30;;;1.20;;
1799;SDS011;919;48.274;12.292;2023-11-19T00:41:40;2.60;;;1.50;;
1799;SDS011;919;48.274;12.292;2023-11-19T00:44:06;1.50;;;1.40;;
1799;SDS011;919;48.274;12.292;2023-11-19T00:46:33;1.10;;;1.10;;
1799;SDS011;919;48.274;12.292;2023-11-19T00:49:00;1.00;;;1.00;;
1799;SDS011;919;48.274;12.292;2023-11-19T00:51:26;1.07;;;1.07;;
1799;SDS011;919;48.274;12.292;2023-11-19T00:53:55;1.33;;;1.23;;
1799;SDS011;919;48.274;12.292;2023-11-19T00:56:21;2.27;;;1.20;;
1799;SDS011;919;48.274;12.292;2023-11-19T00:58:48;1.27;;;1.27;;
1799;SDS011;919;48.274;12.292;2023-11-19T01:01:15;3.43;;;1.57;;
1799;SDS011;919;48.274;12.292;2023-11-19T01:03:41;1.00;;;0.90;;
1799;SDS011;919;48.274;12.292;2023-11-19T01:06:08;1.93;;;1.20;;
1799;SDS011;919;48.274;12.292;2023-11-19T01:08:35;1.30;;;1.20;;
1799;SDS011;919;48.274;12.292;2023-11-19T01:11:03;1.80;;;1.70;;
1799;SDS011;919;48.274;12.292;2023-11-19T01:13:30;1.33;;;1.23;;
1799;SDS011;919;48.274;12.292;2023-11-19T01:15:57;1.67;;;1.57;;
1799;SDS011;919;48.274;12.292;2023-11-19T01:18:23;1.00;;;1.00;;
1799;SDS011;919;48.274;12.292;2023-11-19T01:20:50;1.30;;;1.20;;
1799;SDS011;919;48.274;12.292;2023-11-19T01:23:17;1.40;;;1.30;;
1799;SDS011;919;48.274;12.292;2023-11-19T01:25:44;0.90;;;0.90;;
1799;SDS011;919;48.274;12.292;2023-11-19T01:28:12;1.10;;;1.10;;
1799;SDS011;919;48.274;12.292;2023-11-19T01:30:39;1.13;;;1.13;;
1799;SDS011;919;48.274;12.292;2023-11-19T01:33:06;1.57;;;1.47;;
1799;SDS011;919;48.274;12.292;2023-11-19T01:35:33;1.10;;;1.10;;
1799;SDS011;919;48.274;12.292;2023-11-19T01:37:59;1.50;;;1.33;;
1799;SDS011;919;48.274;12.292;2023-11-19T01:40:26;1.27;;;1.27;;
1799;SDS011;919;48.274;12.292;2023-11-19T01:42:53;1.63;;;1.53;;
1799;SDS011;919;48.274;12.292;2023-11-19T01:45:27;1.90;;;1.80;;
1799;SDS011;919;48.274;12.292;2023-11-19T01:47:55;2.53;;;1.77;;
1799;SDS011;919;48.274;12.292;2023-11-19T01:50:22;1.40;;;1.33;;
1799;SDS011;919;48.274;12.292;2023-11-19T01:52:50;1.83;;;1.73;;
1799;SDS011;919;48.274;12.292;2023-11-19T01:55:18;1.50;;;1.43;;
1799;SDS011;919;48.274;12.292;2023-11-19T01:57:46;2.00;;;1.90;;
1799;SDS011;919;48.274;12.292;2023-11-19T02:00:14;1.63;;;1.53;;
1799;SDS011;919;48.274;12.292;2023-11-19T02:02:43;1.73;;;1.63;;
1799;SDS011;919;48.274;12.292;2023-11-19T02:05:12;1.80;;;1.70;;
1799;SDS011;919;48.274;12.292;2023-11-19T02:07:39;2.33;;;1.70;;
1799;SDS011;919;48.274;12.292;2023-11-19T02:10:06;1.80;;;1.70;;
1799;SDS011;919;48.274;12.292;2023-11-19T02:12:37;1.60;;;1.50;;
1799;SDS011;919;48.274;12.292;2023-11-19T02:15:06;2.00;;;1.90;;
1799;SDS011;919;48.274;12.292;2023-11-19T02:17:34;1.67;;;1.57;;
1799;SDS011;919;48.274;12.292;2023-11-19T02:20:04;1.90;;;1.80;;
1799;SDS011;919;48.274;12.292;2023-11-19T02:22:35;2.00;;;1.90;;
1799;SDS011;919;48.274;12.292;2023-11-19T02:25:04;2.13;;;2.03;;
1799;SDS011;919;48.274;12.292;2023-11-19T02:27:43;2.47;;;2.30;;
1799;SDS011;919;48.274;12.292;2023-11-19T02:30:15;1.97;;;1.87;;
1799;SDS011;919;48.274;12.292;2023-11-19T02:32:42;1.97;;;1.87;;
1799;SDS011;919;48.274;12.292;2023-11-19T02:35:09;3.00;;;2.50;;
1799;SDS011;919;48.274;12.292;2023-11-19T02:37:36;2.03;;;1.93;;
1799;SDS011;919;48.274;12.292;2023-11-19T02:40:04;2.27;;;2.07;;
1799;SDS011;919;48.274;12.292;2023-11-19T02:42:34;2.63;;;2.40;;
1799;SDS011;919;48.274;12.292;2023-11-19T02:45:02;2.80;;;2.47;;
1799;SDS011;919;48.274;12.292;2023-11-19T02:47:32;2.20;;;2.10;;
1799;SDS011;919;48.274;12.292;2023-11-19T02:49:59;2.40;;;2.20;;
1799;SDS011;919;48.274;12.292;2023-11-19T02:52:26;2.80;;;2.60;;
1799;SDS011;919;48.274;12.292;2023-11-19T02:54:53;2.53;;;2.33;;
1799;SDS011;919;48.274;12.292;2023-11-19T02:57:20;2.87;;;2.67;;
1799;SDS011;919;48.274;12.292;2023-11-19T02:59:47;3.00;;;2.80;;
1799;SDS011;919;48.274;12.292;2023-11-19T03:02:15;3.03;;;2.80;;
1799;SDS011;919;48.274;12.292;2023-11-19T03:04:42;2.93;;;2.73;;
1799;SDS011;919;48.274;12.292;2023-11-19T03:07:10;2.37;;;2.17;;
1799;SDS011;919;48.274;12.292;2023-11-19T03:09:38;2.90;;;2.70;;
1799;SDS011;919;48.274;12.292;2023-11-19T03:12:06;3.03;;;2.80;;
1799;SDS011;919;48.274;12.292;2023-11-19T03:14:33;2.93;;;2.70;;
1799;SDS011;919;48.274;12.292;2023-11-19T03:17:00;3.00;;;2.80;;
1799;SDS011;919;48.274;12.292;2023-11-19T03:19:28;3.17;;;2.87;;
1799;SDS011;919;48.274;12.292;2023-11-19T03:21:55;3.20;;;3.00;;
1799;SDS011;919;48.274;12.292;2023-11-19T03:24:21;2.97;;;2.73;;
1799;SDS011;919;48.274;12.292;2023-11-19T03:26:50;2.80;;;2.30;;
1799;SDS011;919;48.274;12.292;2023-11-19T03:29:16;2.60;;;2.40;;
1799;SDS011;919;48.274;12.292;2023-11-19T03:31:43;3.43;;;3.13;;
1799;SDS011;919;48.274;12.292;2023-11-19T03:34:10;2.80;;;2.60;;
1799;SDS011;919;48.274;12.292;2023-11-19T03:36:38;2.50;;;2.30;;
1799;SDS011;919;48.274;12.292;2023-11-19T03:39:05;2.57;;;2.37;;
1799;SDS011;919;48.274;12.292;2023-11-19T03:41:33;5.63;;;2.73;;
1799;SDS011;919;48.274;12.292;2023-11-19T03:43:59;2.50;;;2.30;;
1799;SDS011;919;48.274;12.292;2023-11-19T03:46:26;2.63;;;2.43;;
1799;SDS011;919;48.274;12.292;2023-11-19T03:48:54;2.70;;;2.50;;
1799;SDS011;919;48.274;12.292;2023-11-19T03:51:21;3.00;;;2.73;;
1799;SDS011;919;48.274;12.292;2023-11-19T03:53:49;2.40;;;2.20;;
1799;SDS011;919;48.274;12.292;2023-11-19T03:56:16;2.83;;;2.63;;
1799;SDS011;919;48.274;12.292;2023-11-19T03:58:43;2.50;;;2.33;;
1799;SDS011;919;48.274;12.292;2023-11-19T04:01:11;2.40;;;2.20;;
1799;SDS011;919;48.274;12.292;2023-11-19T04:03:39;3.60;;;2.20;;
1799;SDS011;919;48.274;12.292;2023-11-19T04:06:06;2.80;;;2.40;;
1799;SDS011;919;48.274;12.292;2023-11-19T04:08:33;2.20;;;2.00;;
1799;SDS011;919;48.274;12.292;2023-11-19T04:11:01;2.33;;;2.13;;
1799;SDS011;919;48.274;12.292;2023-11-19T04:13:28;2.50;;;2.30;;
1799;SDS011;919;48.274;12.292;2023-11-19T04:15:55;2.50;;;2.30;;
1799;SDS011;919;48.274;12.292;2023-11-19T04:18:22;2.20;;;2.00;;
1799;SDS011;919;48.274;12.292;2023-11-19T04:20:49;2.30;;;2.20;;
1799;SDS011;919;48.274;12.292;2023-11-19T04:23:16;2.07;;;1.97;;
1799;SDS011;919;48.274;12.292;2023-11-19T04:25:42;2.13;;;1.93;;
1799;SDS011;919;48.274;12.292;2023-11-19T04:28:10;2.90;;;2.60;;
1799;SDS011;919;48.274;12.292;2023-11-19T04:30:37;2.77;;;2.43;;
1799;SDS011;919;48.274;12.292;2023-11-19T04:33:04;2.70;;;2.50;;
1799;SDS011;919;48.274;12.292;2023-11-19T04:35:30;2.27;;;2.10;;
1799;SDS011;919;48.274;12.292;2023-11-19T04:37:57;3.17;;;2.90;;
1799;SDS011;919;48.274;12.292;2023-11-19T04:40:24;2.73;;;2.53;;
1799;SDS011;919;48.274;12.292;2023-11-19T04:42:51;2.53;;;2.33;;
1799;SDS011;919;48.274;12.292;2023-11-19T04:45:19;2.67;;;2.47;;
1799;SDS011;919;48.274;12.292;2023-11-19T04:47:45;4.33;;;3.10;;
1799;SDS011;919;48.274;12.292;2023-11-19T04:50:12;3.07;;;2.87;;
1799;SDS011;919;48.274;12.292;2023-11-19T04:52:39;3.53;;;3.23;;
1799;SDS011;919;48.274;12.292;2023-11-19T04:55:07;2.50;;;2.30;;
1799;SDS011;919;48.274;12.292;2023-11-19T04:57:37;4.13;;;2.97;;
1799;SDS011;919;48.274;12.292;2023-11-19T05:00:04;3.27;;;2.70;;
1799;SDS011;919;48.274;12.292;2023-11-19T05:02:33;2.93;;;2.73;;
1799;SDS011;919;48.274;12.292;2023-11-19T05:05:00;3.30;;;2.80;;
1799;SDS011;919;48.274;12.292;2023-11-19T05:07:27;4.50;;;3.50;;
1799;SDS011;919;48.274;12.292;2023-11-19T05:09:54;2.80;;;2.47;;
1799;SDS011;919;48.274;12.292;2023-11-19T05:12:21;3.27;;;2.90;;
1799;SDS011;919;48.274;12.292;2023-11-19T05:14:48;3.40;;;3.10;;
1799;SDS011;919;48.274;12.292;2023-11-19T05:17:15;3.10;;;2.80;;
1799;SDS011;919;48.274;12.292;2023-11-19T05:19:45;3.67;;;3.30;;
1799;SDS011;919;48.274;12.292;2023-11-19T05:22:12;3.40;;;3.10;;
1799;SDS011;919;48.274;12.292;2023-11-19T05:24:39;4.43;;;3.33;;
1799;SDS011;919;48.274;12.292;2023-11-19T05:27:06;4.10;;;3.70;;
1799;SDS011;919;48.274;12.292;2023-11-19T05:29:33;2.43;;;2.23;;
1799;SDS011;919;48.274;12.292;2023-11-19T05:32:00;2.30;;;2.10;;
1799;SDS011;919;48.274;12.292;2023-11-19T05:34:27;3.27;;;2.87;;
1799;SDS011;919;48.274;12.292;2023-11-19T05:36:55;3.73;;;3.33;;
1799;SDS011;919;48.274;12.292;2023-11-19T05:39:22;3.40;;;2.70;;
1799;SDS011;919;48.274;12.292;2023-11-19T05:41:50;2.87;;;2.57;;
1799;SDS011;919;48.274;12.292;2023-11-19T05:44:16;3.47;;;2.80;;
1799;SDS011;919;48.274;12.292;2023-11-19T05:46:44;5.07;;;4.13;;
1799;SDS011;919;48.274;12.292;2023-11-19T05:49:11;3.23;;;2.93;;
1799;SDS011;919;48.274;12.292;2023-11-19T05:51:38;5.20;;;3.20;;
1799;SDS011;919;48.274;12.292;2023-11-19T05:54:06;3.17;;;2.87;;
1799;SDS011;919;48.274;12.292;2023-11-19T05:56:34;3.17;;;2.97;;
1799;SDS011;919;48.274;12.292;2023-11-19T05:59:01;4.47;;;3.43;;
1799;SDS011;919;48.274;12.292;2023-11-19T06:01:32;4.50;;;3.70;;
1799;SDS011;919;48.274;12.292;2023-11-19T06:03:58;3.67;;;3.20;;
1799;SDS011;919;48.274;12.292;2023-11-19T06:06:26;3.30;;;3.00;;
1799;SDS011;919;48.274;12.292;2023-11-19T06:08:52;4.70;;;3.80;;
1799;SDS011;919;48.274;12.292;2023-11-19T06:11:21;4.13;;;3.53;;
1799;SDS011;919;48.274;12.292;2023-11-19T06:13:48;4.03;;;3.33;;
1799;SDS011;919;48.274;12.292;2023-11-19T06:16:15;5.13;;;3.80;;
1799;SDS011;919;48.274;12.292;2023-11-19T06:18:41;4.20;;;3.80;;
1799;SDS011;919;48.274;12.292;2023-11-19T06:21:08;4.60;;;4.07;;
1799;SDS011;919;48.274;12.292;2023-11-19T06:23:35;4.83;;;4.03;;
1799;SDS011;919;48.274;12.292;2023-11-19T06:26:02;5.70;;;4.47;;
1799;SDS011;919;48.274;12.292;2023-11-19T06:28:31;4.30;;;3.63;;
1799;SDS011;919;48.274;12.292;2023-11-19T06:30:58;6.10;;;4.57;;
1799;SDS011;919;48.274;12.292;2023-11-19T06:33:25;4.50;;;3.70;;
1799;SDS011;919;48.274;12.292;2023-11-19T06:35:52;4.90;;;3.73;;
1799;SDS011;919;48.274;12.292;2023-11-19T06:38:19;5.57;;;3.90;;
1799;SDS011;919;48.274;12.292;2023-11-19T06:40:46;4.93;;;3.10;;
1799;SDS011;919;48.274;12.292;2023-11-19T06:43:13;3.90;;;3.47;;
1799;SDS011;919;48.274;12.292;2023-11-19T06:45:41;3.33;;;3.00;;
1799;SDS011;919;48.274;12.292;2023-11-19T06:48:08;5.53;;;3.50;;
1799;SDS011;919;48.274;12.292;2023-11-19T06:50:35;3.90;;;3.07;;
1799;SDS011;919;48.274;12.292;2023-11-19T06:53:02;4.27;;;3.57;;
1799;SDS011;919;48.274;12.292;2023-11-19T06:55:30;4.13;;;3.30;;
1799;SDS011;919;48.274;12.292;2023-11-19T06:57:57;4.50;;;3.90;;
1799;SDS011;919;48.274;12.292;2023-11-19T07:00:25;4.07;;;2.60;;
1799;SDS011;919;48.274;12.292;2023-11-19T07:02:53;5.10;;;3.50;;
1799;SDS011;919;48.274;12.292;2023-11-19T07:05:20;4.10;;;3.37;;
1799;SDS011;919;48.274;12.292;2023-11-19T07:07:48;4.00;;;3.20;;
1799;SDS011;919;48.274;12.292;2023-11-19T07:10:15;3.63;;;2.70;;
1799;SDS011;919;48.274;12.292;2023-11-19T07:12:42;4.23;;;3.63;;
1799;SDS011;919;48.274;12.292;2023-11-19T07:15:09;4.00;;;3.60;;
1799;SDS011;919;48.274;12.292;2023-11-19T07:17:38;4.80;;;3.13;;
1799;SDS011;919;48.274;12.292;2023-11-19T07:20:06;4.40;;;3.50;;
1799;SDS011;919;48.274;12.292;2023-11-19T07:22:34;4.57;;;3.80;;
1799;SDS011;919;48.274;12.292;2023-11-19T07:25:03;4.00;;;3.10;;
1799;SDS011;919;48.274;12.292;2023-11-19T07:27:30;4.37;;;3.30;;
1799;SDS011;919;48.274;12.292;2023-11-19T07:29:57;4.03;;;3.63;;
1799;SDS011;919;48.274;12.292;2023-11-19T07:32:24;3.70;;;3.30;;
1799;SDS011;919;48.274;12.292;2023-11-19T07:34:51;3.83;;;3.40;;
1799;SDS011;919;48.274;12.292;2023-11-19T07:37:19;5.87;;;4.80;;
1799;SDS011;919;48.274;12.292;2023-11-19T07:39:46;5.13;;;3.70;;
1799;SDS011;919;48.274;12.292;2023-11-19T07:42:13;4.50;;;3.50;;
1799;SDS011;919;48.274;12.292;2023-11-19T07:44:39;5.30;;;3.93;;
1799;SDS011;919;48.274;12.292;2023-11-19T07:47:06;4.47;;;3.77;;
1799;SDS011;919;48.274;12.292;2023-11-19T07:49:33;4.47;;;3.53;;
1799;SDS011;919;48.274;12.292;2023-11-19T07:51:59;4.50;;;3.97;;
1799;SDS011;919;48.274;12.292;2023-11-19T07:54:29;4.63;;;3.17;;
1799;SDS011;919;48.274;12.292;2023-11-19T07:56:56;4.10;;;3.30;;
1799;SDS011;919;48.274;12.292;2023-11-19T07:59:22;3.80;;;3.33;;
1799;SDS011;919;48.274;12.292;2023-11-19T08:01:49;4.17;;;3.10;;
1799;SDS011;919;48.274;12.292;2023-11-19T08:04:16;4.03;;;3.03;;
1799;SDS011;919;48.274;12.292;2023-11-19T08:06:42;3.50;;;3.03;;
1799;SDS011;919;48.274;12.292;2023-11-19T08:09:10;3.90;;;2.87;;
1799;SDS011;919;48.274;12.292;2023-11-19T08:11:39;3.40;;;2.97;;
1799;SDS011;919;48.274;12.292;2023-11-19T08:14:06;3.83;;;3.20;;
1799;SDS011;919;48.274;12.292;2023-11-19T08:16:33;3.33;;;3.00;;
1799;SDS011;919;48.274;12.292;2023-11-19T08:19:01;4.00;;;3.40;;
1799;SDS011;919;48.274;12.292;2023-11-19T08:21:28;2.73;;;2.53;;
1799;SDS011;919;48.274;12.292;2023-11-19T08:23:55;1.33;;;1.20;;
1799;SDS011;919;48.274;12.292;2023-11-19T08:26:21;0.83;;;0.80;;
1799;SDS011;919;48.274;12.292;2023-11-19T08:28:49;1.27;;;0.80;;
1799;SDS011;919;48.274;12.292;2023-11-19T08:31:17;0.90;;;0.90;;
1799;SDS011;919;48.274;12.292;2023-11-19T08:33:43;1.13;;;0.70;;
1799;SDS011;919;48.274;12.292;2023-11-19T08:36:14;1.77;;;1.03;;
1799;SDS011;919;48.274;12.292;2023-11-19T08:38:41;0.60;;;0.60;;
1799;SDS011;919;48.274;12.292;2023-11-19T08:41:08;0.80;;;0.80;;
1799;SDS011;919;48.274;12.292;2023-11-19T08:43:35;0.80;;;0.60;;
1799;SDS011;919;48.274;12.292;2023-11-19T08:46:03;0.73;;;0.73;;
1799;SDS011;919;48.274;12.292;2023-11-19T08:48:35;0.60;;;0.60;;
1799;SDS011;919;48.274;12.292;2023-11-19T08:51:01;0.87;;;0.53;;
1799;SDS011;919;48.274;12.292;2023-11-19T08:53:29;0.63;;;0.53;;
1799;SDS011;919;48.274;12.292;2023-11-19T08:55:56;0.60;;;0.60;;
1799;SDS011;919;48.274;12.292;2023-11-19T08:58:23;0.40;;;0.40;;
1799;SDS011;919;48.274;12.292;2023-11-19T09:00:50;0.60;;;0.60;;
1799;SDS011;919;48.274;12.292;2023-11-19T09:03:18;1.00;;;0.60;;
1799;SDS011;919;48.274;12.292;2023-11-19T09:05:45;0.50;;;0.50;;
1799;SDS011;919;48.274;12.292;2023-11-19T09:08:12;0.60;;;0.40;;
1799;SDS011;919;48.274;12.292;2023-11-19T09:10:38;0.83;;;0.70;;
1799;SDS011;919;48.274;12.292;2023-11-19T09:13:05;0.60;;;0.50;;
1799;SDS011;919;48.274;12.292;2023-11-19T09:15:32;0.60;;;0.60;;
1799;SDS011;919;48.274;12.292;2023-11-19T09:17:59;0.50;;;0.50;;
1799;SDS011;919;48.274;12.292;2023-11-19T09:20:27;1.33;;;0.50;;
1799;SDS011;919;48.274;12.292;2023-11-19T09:22:57;0.60;;;0.60;;
1799;SDS011;919;48.274;12.292;2023-11-19T09:25:24;0.93;;;0.70;;
1799;SDS011;919;48.274;12.292;2023-11-19T09:27:51;0.70;;;0.70;;
1799;SDS011;919;48.274;12.292;2023-11-19T09:30:17;0.53;;;0.53;;
1799;SDS011;919;48.274;12.292;2023-11-19T09:32:44;0.70;;;0.70;;
1799;SDS011;919;48.274;12.292;2023-11-19T09:35:11;1.37;;;0.60;;
1799;SDS011;919;48.274;12.292;2023-11-19T09:37:41;0.80;;;0.50;;
1799;SDS011;919;48.274;12.292;2023-11-19T09:40:09;0.60;;;0.43;;
1799;SDS011;919;48.274;12.292;2023-11-19T09:42:38;0.73;;;0.57;;
1799;SDS011;919;48.274;12.292;2023-11-19T09:45:12;0.50;;;0.50;;
1799;SDS011;919;48.274;12.292;2023-11-19T09:47:40;0.50;;;0.40;;
1799;SDS011;919;48.274;12.292;2023-11-19T09:50:09;0.50;;;0.50;;
1799;SDS011;919;48.274;12.292;2023-11-19T09:52:40;0.60;;;0.57;;
1799;SDS011;919;48.274;12.292;2023-11-19T09:55:07;0.57;;;0.53;;
1799;SDS011;919;48.274;12.292;2023-11-19T09:57:34;0.73;;;0.50;;
1799;SDS011;919;48.274;12.292;2023-11-19T10:00:04;0.80;;;0.80;;
1799;SDS011;919;48.274;12.292;2023-11-19T10:02:32;1.47;;;0.57;;
1799;SDS011;919;48.274;12.292;2023-11-19T10:05:02;0.60;;;0.60;;
1799;SDS011;919;48.274;12.292;2023-11-19T10:07:31;1.03;;;0.50;;
1799;SDS011;919;48.274;12.292;2023-11-19T10:10:00;0.87;;;0.80;;
1799;SDS011;919;48.274;12.292;2023-11-19T10:12:29;0.90;;;0.73;;
1799;SDS011;919;48.274;12.292;2023-11-19T10:14:56;1.10;;;0.77;;
1799;SDS011;919;48.274;12.292;2023-11-19T10:17:27;0.50;;;0.50;;
1799;SDS011;919;48.274;12.292;2023-11-19T10:19:54;0.80;;;0.73;;
1799;SDS011;919;48.274;12.292;2023-11-19T10:22:22;0.60;;;0.60;;
1799;SDS011;919;48.274;12.292;2023-11-19T10:24:49;0.57;;;0.57;;
1799;SDS011;919;48.274;12.292;2023-11-19T10:27:18;0.60;;;0.60;;
1799;SDS011;919;48.274;12.292;2023-11-19T10:29:45;0.50;;;0.50;;
1799;SDS011;919;48.274;12.292;2023-11-19T10:32:12;0.80;;;0.80;;
1799;SDS011;919;48.274;12.292;2023-11-19T10:34:40;0.80;;;0.80;;
1799;SDS011;919;48.274;12.292;2023-11-19T10:37:08;1.60;;;0.83;;
1799;SDS011;919;48.274;12.292;2023-11-19T10:42:21;0.80;;;0.73;;
1799;SDS011;919;48.274;12.292;2023-11-19T10:44:48;3.63;;;0.77;;
1799;SDS011;919;48.274;12.292;2023-11-19T10:47:15;0.60;;;0.60;;
1799;SDS011;919;48.274;12.292;2023-11-19T10:49:44;8.40;;;0.80;;
1799;SDS011;919;48.274;12.292;2023-11-19T10:52:12;0.53;;;0.40;;
1799;SDS011;919;48.274;12.292;2023-11-19T10:54:44;0.80;;;0.57;;
1799;SDS011;919;48.274;12.292;2023-11-19T10:57:16;0.80;;;0.53;;
1799;SDS011;919;48.274;12.292;2023-11-19T10:59:48;0.90;;;0.80;;
1799;SDS011;919;48.274;12.292;2023-11-19T11:02:18;0.83;;;0.50;;
1799;SDS011;919;48.274;12.292;2023-11-19T11:04:47;0.70;;;0.67;;
1799;SDS011;919;48.274;12.292;2023-11-19T11:07:16;0.87;;;0.83;;
1799;SDS011;919;48.274;12.292;2023-11-19T11:09:47;0.63;;;0.60;;
1799;SDS011;919;48.274;12.292;2023-11-19T11:12:14;0.87;;;0.70;;
1799;SDS011;919;48.274;12.292;2023-11-19T11:14:43;0.90;;;0.70;;
1799;SDS011;919;48.274;12.292;2023-11-19T11:17:13;0.70;;;0.70;;
1799;SDS011;919;48.274;12.292;2023-11-19T11:19:44;0.50;;;0.50;;
1799;SDS011;919;48.274;12.292;2023-11-19T11:22:11;0.50;;;0.50;;
1799;SDS011;919;48.274;12.292;2023-11-19T11:24:55;0.57;;;0.57;;
1799;SDS011;919;48.274;12.292;2023-11-19T11:30:44;0.60;;;0.60;;
1799;SDS011;919;48.274;12.292;2023-11-19T11:33:26;0.60;;;0.60;;
1799;SDS011;919;48.274;12.292;2023-11-19T11:36:03;0.70;;;0.60;;
1799;SDS011;919;48.274;12.292;2023-11-19T11:38:39;0.80;;;0.80;;
1799;SDS011;919;48.274;12.292;2023-11-19T11:41:17;0.60;;;0.60;;
1799;SDS011;919;48.274;12.292;2023-11-19T11:43:45;0.70;;;0.50;;
1799;SDS011;919;48.274;12.292;2023-11-19T11:49:28;0.53;;;0.50;;
1799;SDS011;919;48.274;12.292;2023-11-19T11:52:03;0.60;;;0.60;;
1799;SDS011;919;48.274;12.292;2023-11-19T11:54:30;0.40;;;0.40;;
1799;SDS011;919;48.274;12.292;2023-11-19T11:57:01;0.70;;;0.70;;
1799;SDS011;919;48.274;12.292;2023-11-19T12:02:20;0.77;;;0.77;;
1799;SDS011;919;48.274;12.292;2023-11-19T12:04:50;0.60;;;0.50;;
1799;SDS011;919;48.274;12.292;2023-11-19T12:07:18;0.97;;;0.67;;
1799;SDS011;919;48.274;12.292;2023-11-19T12:09:47;0.83;;;0.67;;
1799;SDS011;919;48.274;12.292;2023-11-19T12:12:18;1.23;;;0.73;;
1799;SDS011;919;48.274;12.292;2023-11-19T12:15:00;0.80;;;0.80;;
1799;SDS011;919;48.274;12.292;2023-11-19T12:17:36;0.90;;;0.60;;
1799;SDS011;919;48.274;12.292;2023-11-19T12:20:06;0.60;;;0.60;;
1799;SDS011;919;48.274;12.292;2023-11-19T12:22:34;0.40;;;0.40;;
1799;SDS011;919;48.274;12.292;2023-11-19T12:25:03;0.70;;;0.70;;
1799;SDS011;919;48.274;12.292;2023-11-19T12:27:31;2.20;;;0.97;;
1799;SDS011;919;48.274;12.292;2023-11-19T12:30:01;1.00;;;0.50;;
1799;SDS011;919;48.274;12.292;2023-11-19T12:32:37;4.73;;;0.57;;
1799;SDS011;919;48.274;12.292;2023-11-19T12:35:04;0.57;;;0.57;;
1799;SDS011;919;48.274;12.292;2023-11-19T12:37:38;0.80;;;0.80;;
1799;SDS011;919;48.274;12.292;2023-11-19T12:40:10;1.37;;;0.70;;
1799;SDS011;919;48.274;12.292;2023-11-19T12:42:38;0.63;;;0.63;;
1799;SDS011;919;48.274;12.292;2023-11-19T12:45:06;0.53;;;0.40;;
1799;SDS011;919;48.274;12.292;2023-11-19T12:47:34;0.60;;;0.60;;
1799;SDS011;919;48.274;12.292;2023-11-19T12:50:01;0.87;;;0.77;;
1799;SDS011;919;48.274;12.292;2023-11-19T12:52:30;1.67;;;0.70;;
1799;SDS011;919;48.274;12.292;2023-11-19T12:54:57;7.53;;;0.60;;
1799;SDS011;919;48.274;12.292;2023-11-19T12:57:35;0.40;;;0.40;;
1799;SDS011;919;48.274;12.292;2023-11-19T13:00:03;0.97;;;0.50;;
1799;SDS011;919;48.274;12.292;2023-11-19T13:02:46;0.60;;;0.40;;
1799;SDS011;919;48.274;12.292;2023-11-19T13:05:21;1.80;;;0.53;;
1799;SDS011;919;48.274;12.292;2023-11-19T13:07:59;0.60;;;0.60;;
1799;SDS011;919;48.274;12.292;2023-11-19T13:10:27;1.10;;;0.60;;
1799;SDS011;919;48.274;12.292;2023-11-19T13:13:01;1.07;;;0.60;;
1799;SDS011;919;48.274;12.292;2023-11-19T13:15:28;0.57;;;0.57;;
1799;SDS011;919;48.274;12.292;2023-11-19T13:17:55;0.60;;;0.57;;
1799;SDS011;919;48.274;12.292;2023-11-19T13:20:22;0.60;;;0.60;;
1799;SDS011;919;48.274;12.292;2023-11-19T13:22:55;0.97;;;0.60;;
1799;SDS011;919;48.274;12.292;2023-11-19T13:25:24;0.60;;;0.60;;
1799;SDS011;919;48.274;12.292;2023-11-19T13:27:51;0.50;;;0.50;;
1799;SDS011;919;48.274;12.292;2023-11-19T13:30:18;0.40;;;0.40;;
1799;SDS011;919;48.274;12.292;2023-11-19T13:32:45;0.70;;;0.63;;
1799;SDS011;919;48.274;12.292;2023-11-19T13:35:11;1.57;;;0.70;;
1799;SDS011;919;48.274;12.292;2023-11-19T13:37:38;0.50;;;0.50;;
1799;SDS011;919;48.274;12.292;2023-11-19T13:40:06;0.50;;;0.50;;
1799;SDS011;919;48.274;12.292;2023-11-19T13:42:36;0.70;;;0.70;;
1799;SDS011;919;48.274;12.292;2023-11-19T13:45:06;0.60;;;0.60;;
1799;SDS011;919;48.274;12.292;2023-11-19T13:47:35;0.50;;;0.50;;
1799;SDS011;919;48.274;12.292;2023-11-19T13:50:03;0.80;;;0.80;;
1799;SDS011;919;48.274;12.292;2023-11-19T13:52:31;0.60;;;0.60;;
1799;SDS011;919;48.274;12.292;2023-11-19T13:54:58;0.60;;;0.60;;
1799;SDS011;919;48.274;12.292;2023-11-19T13:57:25;1.00;;;0.60;;
1799;SDS011;919;48.274;12.292;2023-11-19T13:59:53;0.83;;;0.80;;
1799;SDS011;919;48.274;12.292;2023-11-19T14:02:19;0.60;;;0.60;;
1799;SDS011;919;48.274;12.292;2023-11-19T14:04:46;0.50;;;0.50;;
1799;SDS011;919;48.274;12.292;2023-11-19T14:07:13;1.00;;;0.87;;
1799;SDS011;919;48.274;12.292;2023-11-19T14:09:41;1.00;;;0.53;;
1799;SDS011;919;48.274;12.292;2023-11-19T14:12:08;0.90;;;0.67;;
1799;SDS011;919;48.274;12.292;2023-11-19T14:14:37;0.73;;;0.70;;
1799;SDS011;919;48.274;12.292;2023-11-19T14:17:06;0.50;;;0.50;;
1799;SDS011;919;48.274;12.292;2023-11-19T14:19:33;0.53;;;0.53;;
1799;SDS011;919;48.274;12.292;2023-11-19T14:22:00;0.83;;;0.77;;
1799;SDS011;919;48.274;12.292;2023-11-19T14:24:27;0.67;;;0.67;;
1799;SDS011;919;48.274;12.292;2023-11-19T14:26:53;0.63;;;0.63;;
1799;SDS011;919;48.274;12.292;2023-11-19T14:29:23;0.63;;;0.50;;
1799;SDS011;919;48.274;12.292;2023-11-19T14:31:51;1.10;;;0.70;;
1799;SDS011;919;48.274;12.292;2023-11-19T14:34:19;0.80;;;0.80;;
1799;SDS011;919;48.274;12.292;2023-11-19T14:36:45;0.87;;;0.60;;
1799;SDS011;919;48.274;12.292;2023-11-19T14:39:12;1.60;;;0.60;;
1799;SDS011;919;48.274;12.292;2023-11-19T14:41:39;0.63;;;0.63;;
1799;SDS011;919;48.274;12.292;2023-11-19T14:44:06;0.70;;;0.60;;
1799;SDS011;919;48.274;12.292;2023-11-19T14:46:34;0.90;;;0.70;;
1799;SDS011;919;48.274;12.292;2023-11-19T14:49:02;0.50;;;0.50;;
1799;SDS011;919;48.274;12.292;2023-11-19T14:51:30;0.73;;;0.60;;
1799;SDS011;919;48.274;12.292;2023-11-19T14:53:57;1.27;;;0.77;;
1799;SDS011;919;48.274;12.292;2023-11-19T14:56:23;0.97;;;0.60;;
1799;SDS011;919;48.274;12.292;2023-11-19T14:58:50;1.27;;;0.73;;
1799;SDS011;919;48.274;12.292;2023-11-19T15:01:17;0.80;;;0.80;;
1799;SDS011;919;48.274;12.292;2023-11-19T15:03:44;0.50;;;0.50;;
1799;SDS011;919;48.274;12.292;2023-11-19T15:06:10;0.87;;;0.77;;
1799;SDS011;919;48.274;12.292;2023-11-19T15:08:39;0.80;;;0.80;;
1799;SDS011;919;48.274;12.292;2023-11-19T15:11:06;1.10;;;0.63;;
1799;SDS011;919;48.274;12.292;2023-11-19T15:13:34;1.33;;;0.90;;
1799;SDS011;919;48.274;12.292;2023-11-19T15:16:02;0.70;;;0.70;;
1799;SDS011;919;48.274;12.292;2023-11-19T15:18:30;0.70;;;0.70;;
1799;SDS011;919;48.274;12.292;2023-11-19T15:20:57;0.90;;;0.90;;
1799;SDS011;919;48.274;12.292;2023-11-19T15:23:25;0.83;;;0.80;;
1799;SDS011;919;48.274;12.292;2023-11-19T15:25:55;0.70;;;0.70;;
1799;SDS011;919;48.274;12.292;2023-11-19T15:28:22;0.60;;;0.60;;
1799;SDS011;919;48.274;12.292;2023-11-19T15:30:49;0.60;;;0.60;;
1799;SDS011;919;48.274;12.292;2023-11-19T15:33:16;1.17;;;1.00;;